sensor_id;sensor_type;location;lat;lon;timestamp;P1;durP1;ratioP1;P2;durP2;ratioP2
76320;SDS011;65132;52.088;5.402;2024-03-22T00:01:07;37.22;;;15.15;;
76320;SDS011;65132;52.088;5.402;2024-03-22T00:03:32;36.67;;;16.02;;
76320;SDS011;65132;52.088;5.402;2024-03-22T00:05:58;35.05;;;13.52;;
76320;SDS011;65132;52.088;5.402;2024-03-22T00:08:23;35.88;;;13.95;;
76320;SDS011;65132;52.088;5.402;2024-03-22T00:10:49;32.88;;;14.20;;
76320;SDS011;65132;52.088;5.402;2024-03-22T00:13:14;38.17;;;15.40;;
76320;SDS011;65132;52.088;5.402;2024-03-22T00:15:40;36.15;;;13.45;;
76320;SDS011;65132;52.088;5.402;2024-03-22T00:18:08;38.83;;;15.43;;
76320;SDS011;65132;52.088;5.402;2024-03-22T00:20:36;37.33;;;14.68;;
76320;SDS011;65132;52.088;5.402;2024-03-22T00:23:01;43.92;;;16.88;;
76320;SDS011;65132;52.088;5.402;2024-03-22T00:25:26;38.13;;;14.98;;
76320;SDS011;65132;52.088;5.402;2024-03-22T00:27:54;40.25;;;17.00;;
76320;SDS011;65132;52.088;5.402;2024-03-22T00:30:20;36.50;;;15.13;;
76320;SDS011;65132;52.088;5.402;2024-03-22T00:32:46;39.38;;;15.80;;
76320;SDS011;65132;52.088;5.402;2024-03-22T00:35:11;45.05;;;16.67;;
76320;SDS011;65132;52.088;5.402;2024-03-22T00:37:37;40.97;;;16.20;;
76320;SDS011;65132;52.088;5.402;2024-03-22T00:40:02;39.97;;;15.75;;
76320;SDS011;65132;52.088;5.402;2024-03-22T00:42:28;41.67;;;15.73;;
76320;SDS011;65132;52.088;5.402;2024-03-22T00:44:53;40.90;;;16.35;;
76320;SDS011;65132;52.088;5.402;2024-03-22T00:47:19;37.90;;;15.35;;
76320;SDS011;65132;52.088;5.402;2024-03-22T00:49:44;43.47;;;16.40;;
76320;SDS011;65132;52.088;5.402;2024-03-22T00:52:10;36.08;;;15.32;;
76320;SDS011;65132;52.088;5.402;2024-03-22T00:54:38;39.00;;;17.02;;
76320;SDS011;65132;52.088;5.402;2024-03-22T00:57:04;44.13;;;17.63;;
76320;SDS011;65132;52.088;5.402;2024-03-22T00:59:32;43.30;;;16.17;;
76320;SDS011;65132;52.088;5.402;2024-03-22T01:01:58;43.45;;;17.48;;
76320;SDS011;65132;52.088;5.402;2024-03-22T01:04:23;46.03;;;18.13;;
76320;SDS011;65132;52.088;5.402;2024-03-22T01:06:52;47.28;;;18.27;;
76320;SDS011;65132;52.088;5.402;2024-03-22T01:09:17;46.22;;;17.45;;
76320;SDS011;65132;52.088;5.402;2024-03-22T01:11:43;42.90;;;17.10;;
76320;SDS011;65132;52.088;5.402;2024-03-22T01:14:08;48.65;;;17.95;;
76320;SDS011;65132;52.088;5.402;2024-03-22T01:16:33;45.22;;;17.67;;
76320;SDS011;65132;52.088;5.402;2024-03-22T01:18:59;46.45;;;18.45;;
76320;SDS011;65132;52.088;5.402;2024-03-22T01:21:24;41.17;;;15.98;;
76320;SDS011;65132;52.088;5.402;2024-03-22T01:23:51;41.40;;;17.10;;
76320;SDS011;65132;52.088;5.402;2024-03-22T01:26:17;44.55;;;17.38;;
76320;SDS011;65132;52.088;5.402;2024-03-22T01:28:42;43.00;;;16.67;;
76320;SDS011;65132;52.088;5.402;2024-03-22T01:31:08;41.03;;;16.90;;
76320;SDS011;65132;52.088;5.402;2024-03-22T01:33:33;44.20;;;17.73;;
76320;SDS011;65132;52.088;5.402;2024-03-22T01:36:02;50.58;;;18.60;;
76320;SDS011;65132;52.088;5.402;2024-03-22T01:38:27;44.10;;;17.52;;
76320;SDS011;65132;52.088;5.402;2024-03-22T01:40:53;44.05;;;17.75;;
76320;SDS011;65132;52.088;5.402;2024-03-22T01:43:19;45.00;;;17.80;;
76320;SDS011;65132;52.088;5.402;2024-03-22T01:45:45;40.75;;;14.65;;
76320;SDS011;65132;52.088;5.402;2024-03-22T01:48:13;49.63;;;17.58;;
76320;SDS011;65132;52.088;5.402;2024-03-22T01:50:39;35.80;;;16.05;;
76320;SDS011;65132;52.088;5.402;2024-03-22T01:53:07;46.78;;;17.63;;
76320;SDS011;65132;52.088;5.402;2024-03-22T01:55:33;39.78;;;16.13;;
76320;SDS011;65132;52.088;5.402;2024-03-22T01:57:59;41.67;;;16.63;;
76320;SDS011;65132;52.088;5.402;2024-03-22T02:00:27;48.03;;;18.20;;
76320;SDS011;65132;52.088;5.402;2024-03-22T02:02:55;46.22;;;18.75;;
76320;SDS011;65132;52.088;5.402;2024-03-22T02:05:28;41.47;;;17.05;;
76320;SDS011;65132;52.088;5.402;2024-03-22T02:07:53;42.85;;;16.65;;
76320;SDS011;65132;52.088;5.402;2024-03-22T02:10:21;51.72;;;18.90;;
76320;SDS011;65132;52.088;5.402;2024-03-22T02:12:47;46.72;;;17.23;;
76320;SDS011;65132;52.088;5.402;2024-03-22T02:15:12;46.60;;;17.30;;
76320;SDS011;65132;52.088;5.402;2024-03-22T02:17:37;44.97;;;17.88;;
76320;SDS011;65132;52.088;5.402;2024-03-22T02:20:03;47.63;;;17.05;;
76320;SDS011;65132;52.088;5.402;2024-03-22T02:22:29;45.60;;;18.83;;
76320;SDS011;65132;52.088;5.402;2024-03-22T02:24:54;46.67;;;16.80;;
76320;SDS011;65132;52.088;5.402;2024-03-22T02:27:20;41.65;;;17.52;;
76320;SDS011;65132;52.088;5.402;2024-03-22T02:29:46;42.65;;;17.15;;
76320;SDS011;65132;52.088;5.402;2024-03-22T02:32:11;44.05;;;16.55;;
76320;SDS011;65132;52.088;5.402;2024-03-22T02:34:37;43.53;;;17.60;;
76320;SDS011;65132;52.088;5.402;2024-03-22T02:37:02;41.58;;;17.17;;
76320;SDS011;65132;52.088;5.402;2024-03-22T02:39:28;46.67;;;16.63;;
76320;SDS011;65132;52.088;5.402;2024-03-22T02:41:54;39.05;;;16.83;;
76320;SDS011;65132;52.088;5.402;2024-03-22T02:44:21;39.80;;;17.30;;
76320;SDS011;65132;52.088;5.402;2024-03-22T02:46:47;44.08;;;16.80;;
76320;SDS011;65132;52.088;5.402;2024-03-22T02:49:13;41.00;;;15.80;;
76320;SDS011;65132;52.088;5.402;2024-03-22T02:51:38;37.97;;;15.35;;
76320;SDS011;65132;52.088;5.402;2024-03-22T02:54:04;38.42;;;15.02;;
76320;SDS011;65132;52.088;5.402;2024-03-22T02:56:30;40.72;;;16.10;;
76320;SDS011;65132;52.088;5.402;2024-03-22T02:58:55;42.03;;;15.13;;
76320;SDS011;65132;52.088;5.402;2024-03-22T03:01:20;43.30;;;18.17;;
76320;SDS011;65132;52.088;5.402;2024-03-22T03:03:48;39.95;;;15.68;;
76320;SDS011;65132;52.088;5.402;2024-03-22T03:06:14;36.50;;;15.82;;
76320;SDS011;65132;52.088;5.402;2024-03-22T03:08:39;45.97;;;16.63;;
76320;SDS011;65132;52.088;5.402;2024-03-22T03:11:05;44.53;;;16.60;;
76320;SDS011;65132;52.088;5.402;2024-03-22T03:13:33;44.50;;;15.93;;
76320;SDS011;65132;52.088;5.402;2024-03-22T03:16:01;52.78;;;16.85;;
76320;SDS011;65132;52.088;5.402;2024-03-22T03:18:27;37.22;;;15.20;;
76320;SDS011;65132;52.088;5.402;2024-03-22T03:20:53;47.08;;;16.80;;
76320;SDS011;65132;52.088;5.402;2024-03-22T03:23:18;48.70;;;15.93;;
76320;SDS011;65132;52.088;5.402;2024-03-22T03:25:44;45.40;;;17.55;;
76320;SDS011;65132;52.088;5.402;2024-03-22T03:28:10;43.95;;;15.43;;
76320;SDS011;65132;52.088;5.402;2024-03-22T03:30:36;37.08;;;13.63;;
76320;SDS011;65132;52.088;5.402;2024-03-22T03:33:01;33.50;;;13.00;;
76320;SDS011;65132;52.088;5.402;2024-03-22T03:35:27;40.05;;;14.40;;
76320;SDS011;65132;52.088;5.402;2024-03-22T03:37:52;41.92;;;15.55;;
76320;SDS011;65132;52.088;5.402;2024-03-22T03:40:18;43.38;;;15.85;;
76320;SDS011;65132;52.088;5.402;2024-03-22T03:42:44;42.13;;;15.18;;
76320;SDS011;65132;52.088;5.402;2024-03-22T03:45:09;41.78;;;15.13;;
76320;SDS011;65132;52.088;5.402;2024-03-22T03:47:37;48.55;;;16.23;;
76320;SDS011;65132;52.088;5.402;2024-03-22T03:50:03;44.72;;;15.70;;
76320;SDS011;65132;52.088;5.402;2024-03-22T03:52:28;43.88;;;14.38;;
76320;SDS011;65132;52.088;5.402;2024-03-22T03:54:54;40.53;;;15.10;;
76320;SDS011;65132;52.088;5.402;2024-03-22T03:57:19;43.47;;;14.32;;
76320;SDS011;65132;52.088;5.402;2024-03-22T03:59:45;39.47;;;13.48;;
76320;SDS011;65132;52.088;5.402;2024-03-22T04:02:10;40.03;;;13.95;;
76320;SDS011;65132;52.088;5.402;2024-03-22T04:04:36;39.85;;;14.57;;
76320;SDS011;65132;52.088;5.402;2024-03-22T04:07:01;42.50;;;15.43;;
76320;SDS011;65132;52.088;5.402;2024-03-22T04:09:27;44.92;;;15.18;;
76320;SDS011;65132;52.088;5.402;2024-03-22T04:11:53;56.08;;;16.73;;
76320;SDS011;65132;52.088;5.402;2024-03-22T04:14:18;42.92;;;16.20;;
76320;SDS011;65132;52.088;5.402;2024-03-22T04:16:43;44.97;;;15.40;;
76320;SDS011;65132;52.088;5.402;2024-03-22T04:19:09;39.47;;;14.93;;
76320;SDS011;65132;52.088;5.402;2024-03-22T04:21:35;37.70;;;13.35;;
76320;SDS011;65132;52.088;5.402;2024-03-22T04:24:00;47.72;;;16.23;;
76320;SDS011;65132;52.088;5.402;2024-03-22T04:26:26;43.03;;;14.90;;
76320;SDS011;65132;52.088;5.402;2024-03-22T04:28:51;45.35;;;15.98;;
76320;SDS011;65132;52.088;5.402;2024-03-22T04:31:16;44.03;;;16.08;;
76320;SDS011;65132;52.088;5.402;2024-03-22T04:33:42;47.63;;;17.00;;
76320;SDS011;65132;52.088;5.402;2024-03-22T04:36:08;47.45;;;17.00;;
76320;SDS011;65132;52.088;5.402;2024-03-22T04:38:36;39.42;;;15.07;;
76320;SDS011;65132;52.088;5.402;2024-03-22T04:41:01;42.17;;;15.48;;
76320;SDS011;65132;52.088;5.402;2024-03-22T04:43:29;45.90;;;15.27;;
76320;SDS011;65132;52.088;5.402;2024-03-22T04:45:55;46.50;;;16.30;;
76320;SDS011;65132;52.088;5.402;2024-03-22T04:48:23;53.17;;;16.17;;
76320;SDS011;65132;52.088;5.402;2024-03-22T04:50:49;45.40;;;15.50;;
76320;SDS011;65132;52.088;5.402;2024-03-22T04:53:18;39.70;;;14.23;;
76320;SDS011;65132;52.088;5.402;2024-03-22T04:55:47;43.85;;;14.20;;
76320;SDS011;65132;52.088;5.402;2024-03-22T04:58:14;47.47;;;17.08;;
76320;SDS011;65132;52.088;5.402;2024-03-22T05:00:43;39.95;;;15.73;;
76320;SDS011;65132;52.088;5.402;2024-03-22T05:03:10;47.08;;;17.73;;
76320;SDS011;65132;52.088;5.402;2024-03-22T05:05:36;48.13;;;15.90;;
76320;SDS011;65132;52.088;5.402;2024-03-22T05:08:05;43.47;;;16.50;;
76320;SDS011;65132;52.088;5.402;2024-03-22T05:10:31;46.58;;;16.00;;
76320;SDS011;65132;52.088;5.402;2024-03-22T05:12:57;39.42;;;15.05;;
76320;SDS011;65132;52.088;5.402;2024-03-22T05:15:22;45.90;;;15.57;;
76320;SDS011;65132;52.088;5.402;2024-03-22T05:17:51;44.70;;;15.60;;
76320;SDS011;65132;52.088;5.402;2024-03-22T05:20:17;47.00;;;16.48;;
76320;SDS011;65132;52.088;5.402;2024-03-22T05:22:43;45.78;;;15.75;;
76320;SDS011;65132;52.088;5.402;2024-03-22T05:25:08;49.33;;;17.58;;
76320;SDS011;65132;52.088;5.402;2024-03-22T05:27:34;40.00;;;14.07;;
76320;SDS011;65132;52.088;5.402;2024-03-22T05:30:00;45.40;;;15.73;;
76320;SDS011;65132;52.088;5.402;2024-03-22T05:32:26;35.47;;;13.77;;
76320;SDS011;65132;52.088;5.402;2024-03-22T05:34:52;39.95;;;15.07;;
76320;SDS011;65132;52.088;5.402;2024-03-22T05:37:18;40.13;;;14.73;;
76320;SDS011;65132;52.088;5.402;2024-03-22T05:39:43;42.40;;;15.13;;
76320;SDS011;65132;52.088;5.402;2024-03-22T05:42:09;38.60;;;13.95;;
76320;SDS011;65132;52.088;5.402;2024-03-22T05:44:34;37.03;;;14.05;;
76320;SDS011;65132;52.088;5.402;2024-03-22T05:47:00;37.92;;;14.18;;
76320;SDS011;65132;52.088;5.402;2024-03-22T05:49:25;38.63;;;15.43;;
76320;SDS011;65132;52.088;5.402;2024-03-22T05:51:53;35.72;;;13.82;;
76320;SDS011;65132;52.088;5.402;2024-03-22T05:54:21;39.53;;;14.68;;
76320;SDS011;65132;52.088;5.402;2024-03-22T05:56:47;42.90;;;15.15;;
76320;SDS011;65132;52.088;5.402;2024-03-22T05:59:12;38.05;;;13.55;;
76320;SDS011;65132;52.088;5.402;2024-03-22T06:01:38;37.38;;;13.30;;
76320;SDS011;65132;52.088;5.402;2024-03-22T06:04:04;38.50;;;14.48;;
76320;SDS011;65132;52.088;5.402;2024-03-22T06:06:29;42.33;;;13.95;;
76320;SDS011;65132;52.088;5.402;2024-03-22T06:08:55;45.50;;;14.77;;
76320;SDS011;65132;52.088;5.402;2024-03-22T06:11:22;37.92;;;12.68;;
76320;SDS011;65132;52.088;5.402;2024-03-22T06:13:48;36.17;;;13.77;;
76320;SDS011;65132;52.088;5.402;2024-03-22T06:16:13;36.72;;;14.65;;
76320;SDS011;65132;52.088;5.402;2024-03-22T06:18:39;37.35;;;13.70;;
76320;SDS011;65132;52.088;5.402;2024-03-22T06:21:05;38.78;;;14.23;;
76320;SDS011;65132;52.088;5.402;2024-03-22T06:23:31;39.58;;;13.68;;
76320;SDS011;65132;52.088;5.402;2024-03-22T06:25:57;38.90;;;13.85;;
76320;SDS011;65132;52.088;5.402;2024-03-22T06:28:27;32.70;;;12.20;;
76320;SDS011;65132;52.088;5.402;2024-03-22T06:30:54;35.13;;;12.85;;
76320;SDS011;65132;52.088;5.402;2024-03-22T06:33:21;34.53;;;13.30;;
76320;SDS011;65132;52.088;5.402;2024-03-22T06:35:46;35.60;;;11.25;;
76320;SDS011;65132;52.088;5.402;2024-03-22T06:38:12;32.92;;;11.60;;
76320;SDS011;65132;52.088;5.402;2024-03-22T06:40:41;34.53;;;13.35;;
76320;SDS011;65132;52.088;5.402;2024-03-22T06:43:08;29.27;;;12.40;;
76320;SDS011;65132;52.088;5.402;2024-03-22T06:45:34;30.67;;;12.02;;
76320;SDS011;65132;52.088;5.402;2024-03-22T06:47:59;34.08;;;11.45;;
76320;SDS011;65132;52.088;5.402;2024-03-22T06:50:24;31.88;;;11.75;;
76320;SDS011;65132;52.088;5.402;2024-03-22T06:52:53;27.23;;;9.40;;
76320;SDS011;65132;52.088;5.402;2024-03-22T06:55:19;31.38;;;11.10;;
76320;SDS011;65132;52.088;5.402;2024-03-22T06:57:46;27.85;;;11.05;;
76320;SDS011;65132;52.088;5.402;2024-03-22T07:00:12;32.72;;;11.75;;
76320;SDS011;65132;52.088;5.402;2024-03-22T07:02:39;27.33;;;10.75;;
76320;SDS011;65132;52.088;5.402;2024-03-22T07:05:05;29.52;;;11.00;;
76320;SDS011;65132;52.088;5.402;2024-03-22T07:07:32;27.83;;;10.88;;
76320;SDS011;65132;52.088;5.402;2024-03-22T07:10:05;26.02;;;10.55;;
76320;SDS011;65132;52.088;5.402;2024-03-22T07:12:31;20.80;;;7.72;;
76320;SDS011;65132;52.088;5.402;2024-03-22T07:14:59;27.67;;;10.35;;
76320;SDS011;65132;52.088;5.402;2024-03-22T07:17:25;31.92;;;10.57;;
76320;SDS011;65132;52.088;5.402;2024-03-22T07:19:53;28.85;;;9.57;;
76320;SDS011;65132;52.088;5.402;2024-03-22T07:22:20;27.80;;;10.73;;
76320;SDS011;65132;52.088;5.402;2024-03-22T07:24:46;29.05;;;10.60;;
76320;SDS011;65132;52.088;5.402;2024-03-22T07:27:15;25.92;;;9.23;;
76320;SDS011;65132;52.088;5.402;2024-03-22T07:29:40;23.77;;;9.40;;
76320;SDS011;65132;52.088;5.402;2024-03-22T07:32:09;28.17;;;9.85;;
76320;SDS011;65132;52.088;5.402;2024-03-22T07:34:34;26.25;;;10.55;;
76320;SDS011;65132;52.088;5.402;2024-03-22T07:36:59;21.55;;;8.73;;
76320;SDS011;65132;52.088;5.402;2024-03-22T07:39:25;27.33;;;9.60;;
76320;SDS011;65132;52.088;5.402;2024-03-22T07:41:51;22.58;;;9.05;;
76320;SDS011;65132;52.088;5.402;2024-03-22T07:44:17;27.35;;;10.02;;
76320;SDS011;65132;52.088;5.402;2024-03-22T07:46:44;31.92;;;11.32;;
76320;SDS011;65132;52.088;5.402;2024-03-22T07:49:11;27.02;;;10.07;;
76320;SDS011;65132;52.088;5.402;2024-03-22T07:51:38;30.15;;;11.32;;
76320;SDS011;65132;52.088;5.402;2024-03-22T07:54:03;30.85;;;10.10;;
76320;SDS011;65132;52.088;5.402;2024-03-22T07:56:29;34.55;;;11.80;;
76320;SDS011;65132;52.088;5.402;2024-03-22T07:58:55;30.55;;;11.00;;
76320;SDS011;65132;52.088;5.402;2024-03-22T08:01:20;33.70;;;12.18;;
76320;SDS011;65132;52.088;5.402;2024-03-22T08:03:45;29.58;;;10.20;;
76320;SDS011;65132;52.088;5.402;2024-03-22T08:06:11;29.70;;;11.15;;
76320;SDS011;65132;52.088;5.402;2024-03-22T08:08:36;31.50;;;11.68;;
76320;SDS011;65132;52.088;5.402;2024-03-22T08:11:02;27.58;;;10.20;;
76320;SDS011;65132;52.088;5.402;2024-03-22T08:13:27;30.20;;;10.77;;
76320;SDS011;65132;52.088;5.402;2024-03-22T08:15:53;33.10;;;11.38;;
76320;SDS011;65132;52.088;5.402;2024-03-22T08:18:18;31.52;;;11.40;;
76320;SDS011;65132;52.088;5.402;2024-03-22T08:20:44;33.20;;;11.48;;
76320;SDS011;65132;52.088;5.402;2024-03-22T08:23:09;28.33;;;10.32;;
76320;SDS011;65132;52.088;5.402;2024-03-22T08:25:35;27.63;;;10.02;;
76320;SDS011;65132;52.088;5.402;2024-03-22T08:28:00;26.67;;;10.60;;
76320;SDS011;65132;52.088;5.402;2024-03-22T08:30:26;27.48;;;10.10;;
76320;SDS011;65132;52.088;5.402;2024-03-22T08:32:51;22.23;;;9.63;;
76320;SDS011;65132;52.088;5.402;2024-03-22T08:35:17;29.05;;;10.70;;
76320;SDS011;65132;52.088;5.402;2024-03-22T08:37:45;31.33;;;11.32;;
76320;SDS011;65132;52.088;5.402;2024-03-22T08:40:11;30.17;;;11.30;;
76320;SDS011;65132;52.088;5.402;2024-03-22T08:42:37;32.42;;;10.32;;
76320;SDS011;65132;52.088;5.402;2024-03-22T08:45:02;27.67;;;10.45;;
76320;SDS011;65132;52.088;5.402;2024-03-22T08:47:28;27.98;;;9.48;;
76320;SDS011;65132;52.088;5.402;2024-03-22T08:49:54;22.08;;;9.32;;
76320;SDS011;65132;52.088;5.402;2024-03-22T08:52:22;27.45;;;9.93;;
76320;SDS011;65132;52.088;5.402;2024-03-22T08:54:47;27.27;;;10.18;;
76320;SDS011;65132;52.088;5.402;2024-03-22T08:57:13;28.73;;;10.65;;
76320;SDS011;65132;52.088;5.402;2024-03-22T08:59:38;24.42;;;9.35;;
76320;SDS011;65132;52.088;5.402;2024-03-22T09:02:03;23.80;;;9.70;;
76320;SDS011;65132;52.088;5.402;2024-03-22T09:04:29;25.95;;;9.73;;
76320;SDS011;65132;52.088;5.402;2024-03-22T09:06:54;22.83;;;8.13;;
76320;SDS011;65132;52.088;5.402;2024-03-22T09:09:20;24.73;;;9.50;;
76320;SDS011;65132;52.088;5.402;2024-03-22T09:11:45;21.85;;;8.43;;
76320;SDS011;65132;52.088;5.402;2024-03-22T09:14:11;21.52;;;8.73;;
76320;SDS011;65132;52.088;5.402;2024-03-22T09:16:39;24.85;;;9.27;;
76320;SDS011;65132;52.088;5.402;2024-03-22T09:19:04;24.77;;;9.02;;
76320;SDS011;65132;52.088;5.402;2024-03-22T09:21:30;29.33;;;10.20;;
76320;SDS011;65132;52.088;5.402;2024-03-22T09:23:57;22.33;;;9.63;;
76320;SDS011;65132;52.088;5.402;2024-03-22T09:26:23;25.65;;;10.00;;
76320;SDS011;65132;52.088;5.402;2024-03-22T09:28:54;27.23;;;9.05;;
76320;SDS011;65132;52.088;5.402;2024-03-22T09:31:19;24.70;;;8.60;;
76320;SDS011;65132;52.088;5.402;2024-03-22T09:33:45;27.83;;;9.27;;
76320;SDS011;65132;52.088;5.402;2024-03-22T09:36:10;23.27;;;8.90;;
76320;SDS011;65132;52.088;5.402;2024-03-22T09:38:36;22.13;;;8.57;;
76320;SDS011;65132;52.088;5.402;2024-03-22T09:41:01;19.58;;;8.13;;
76320;SDS011;65132;52.088;5.402;2024-03-22T09:43:27;21.08;;;8.10;;
76320;SDS011;65132;52.088;5.402;2024-03-22T09:45:53;21.98;;;8.82;;
76320;SDS011;65132;52.088;5.402;2024-03-22T09:48:19;22.98;;;6.95;;
76320;SDS011;65132;52.088;5.402;2024-03-22T09:50:48;18.65;;;7.85;;
76320;SDS011;65132;52.088;5.402;2024-03-22T09:53:18;17.85;;;6.78;;
76320;SDS011;65132;52.088;5.402;2024-03-22T09:55:53;18.27;;;7.35;;
76320;SDS011;65132;52.088;5.402;2024-03-22T09:58:20;16.50;;;7.68;;
76320;SDS011;65132;52.088;5.402;2024-03-22T10:00:46;18.05;;;7.72;;
76320;SDS011;65132;52.088;5.402;2024-03-22T10:03:11;21.40;;;8.10;;
76320;SDS011;65132;52.088;5.402;2024-03-22T10:05:37;15.57;;;7.47;;
76320;SDS011;65132;52.088;5.402;2024-03-22T10:08:03;15.77;;;5.63;;
76320;SDS011;65132;52.088;5.402;2024-03-22T10:10:29;17.40;;;7.30;;
76320;SDS011;65132;52.088;5.402;2024-03-22T10:12:54;17.50;;;6.60;;
76320;SDS011;65132;52.088;5.402;2024-03-22T10:15:20;18.67;;;6.57;;
76320;SDS011;65132;52.088;5.402;2024-03-22T10:17:45;16.65;;;7.47;;
76320;SDS011;65132;52.088;5.402;2024-03-22T10:20:14;13.65;;;6.75;;
76320;SDS011;65132;52.088;5.402;2024-03-22T10:22:43;12.27;;;6.10;;
76320;SDS011;65132;52.088;5.402;2024-03-22T10:25:13;15.65;;;6.30;;
76320;SDS011;65132;52.088;5.402;2024-03-22T10:27:39;14.95;;;6.75;;
76320;SDS011;65132;52.088;5.402;2024-03-22T10:30:10;16.35;;;6.25;;
76320;SDS011;65132;52.088;5.402;2024-03-22T10:32:40;13.45;;;6.05;;
76320;SDS011;65132;52.088;5.402;2024-03-22T10:35:07;15.30;;;6.13;;
76320;SDS011;65132;52.088;5.402;2024-03-22T10:37:36;15.45;;;7.05;;
76320;SDS011;65132;52.088;5.402;2024-03-22T10:40:02;17.52;;;6.28;;
76320;SDS011;65132;52.088;5.402;2024-03-22T10:42:28;16.48;;;5.95;;
76320;SDS011;65132;52.088;5.402;2024-03-22T10:44:54;13.93;;;7.18;;
76320;SDS011;65132;52.088;5.402;2024-03-22T10:47:19;14.75;;;6.40;;
76320;SDS011;65132;52.088;5.402;2024-03-22T10:49:47;15.45;;;6.28;;
76320;SDS011;65132;52.088;5.402;2024-03-22T10:52:16;12.60;;;5.95;;
76320;SDS011;65132;52.088;5.402;2024-03-22T10:54:43;20.08;;;6.97;;
76320;SDS011;65132;52.088;5.402;2024-03-22T10:57:11;17.02;;;6.82;;
76320;SDS011;65132;52.088;5.402;2024-03-22T10:59:40;14.35;;;6.00;;
76320;SDS011;65132;52.088;5.402;2024-03-22T11:02:06;13.95;;;6.18;;
76320;SDS011;65132;52.088;5.402;2024-03-22T11:04:35;15.68;;;6.32;;
76320;SDS011;65132;52.088;5.402;2024-03-22T11:07:02;10.95;;;4.97;;
76320;SDS011;65132;52.088;5.402;2024-03-22T11:09:28;14.43;;;6.38;;
76320;SDS011;65132;52.088;5.402;2024-03-22T11:11:55;12.25;;;5.85;;
76320;SDS011;65132;52.088;5.402;2024-03-22T11:14:22;14.90;;;6.18;;
76320;SDS011;65132;52.088;5.402;2024-03-22T11:16:47;11.27;;;5.35;;
76320;SDS011;65132;52.088;5.402;2024-03-22T11:19:13;11.20;;;5.43;;
76320;SDS011;65132;52.088;5.402;2024-03-22T11:21:38;12.23;;;5.32;;
76320;SDS011;65132;52.088;5.402;2024-03-22T11:24:04;10.52;;;5.38;;
76320;SDS011;65132;52.088;5.402;2024-03-22T11:26:30;10.48;;;5.45;;
76320;SDS011;65132;52.088;5.402;2024-03-22T11:28:55;10.43;;;5.15;;
76320;SDS011;65132;52.088;5.402;2024-03-22T11:31:22;9.80;;;5.07;;
76320;SDS011;65132;52.088;5.402;2024-03-22T11:33:48;11.25;;;5.85;;
76320;SDS011;65132;52.088;5.402;2024-03-22T11:36:14;10.98;;;5.15;;
76320;SDS011;65132;52.088;5.402;2024-03-22T11:38:39;10.63;;;5.30;;
76320;SDS011;65132;52.088;5.402;2024-03-22T11:41:06;11.50;;;4.97;;
76320;SDS011;65132;52.088;5.402;2024-03-22T11:43:34;11.07;;;5.18;;
76320;SDS011;65132;52.088;5.402;2024-03-22T11:46:00;11.75;;;4.60;;
76320;SDS011;65132;52.088;5.402;2024-03-22T11:48:26;9.45;;;4.40;;
76320;SDS011;65132;52.088;5.402;2024-03-22T11:50:51;10.18;;;4.68;;
76320;SDS011;65132;52.088;5.402;2024-03-22T11:53:17;9.07;;;5.00;;
76320;SDS011;65132;52.088;5.402;2024-03-22T11:55:42;11.70;;;5.18;;
76320;SDS011;65132;52.088;5.402;2024-03-22T11:58:11;9.98;;;4.63;;
76320;SDS011;65132;52.088;5.402;2024-03-22T12:00:36;10.02;;;4.70;;
76320;SDS011;65132;52.088;5.402;2024-03-22T12:03:05;10.85;;;4.07;;
76320;SDS011;65132;52.088;5.402;2024-03-22T12:05:31;9.75;;;4.60;;
76320;SDS011;65132;52.088;5.402;2024-03-22T12:07:58;7.75;;;3.80;;
76320;SDS011;65132;52.088;5.402;2024-03-22T12:10:25;9.15;;;4.05;;
76320;SDS011;65132;52.088;5.402;2024-03-22T12:12:50;8.80;;;3.78;;
76320;SDS011;65132;52.088;5.402;2024-03-22T12:15:16;8.13;;;3.70;;
76320;SDS011;65132;52.088;5.402;2024-03-22T12:17:42;9.43;;;3.50;;
76320;SDS011;65132;52.088;5.402;2024-03-22T12:20:08;8.25;;;3.70;;
76320;SDS011;65132;52.088;5.402;2024-03-22T12:22:34;7.63;;;3.50;;
76320;SDS011;65132;52.088;5.402;2024-03-22T12:25:00;5.15;;;2.65;;
76320;SDS011;65132;52.088;5.402;2024-03-22T12:27:25;7.28;;;2.80;;
76320;SDS011;65132;52.088;5.402;2024-03-22T12:29:51;6.38;;;3.08;;
76320;SDS011;65132;52.088;5.402;2024-03-22T12:32:16;8.00;;;2.83;;
76320;SDS011;65132;52.088;5.402;2024-03-22T12:34:42;8.48;;;3.10;;
76320;SDS011;65132;52.088;5.402;2024-03-22T12:37:07;12.15;;;5.90;;
76320;SDS011;65132;52.088;5.402;2024-03-22T12:39:33;29.48;;;14.15;;
76320;SDS011;65132;52.088;5.402;2024-03-22T12:41:58;34.90;;;17.15;;
76320;SDS011;65132;52.088;5.402;2024-03-22T12:44:24;23.15;;;12.35;;
76320;SDS011;65132;52.088;5.402;2024-03-22T12:46:52;9.80;;;3.95;;
76320;SDS011;65132;52.088;5.402;2024-03-22T12:49:18;7.22;;;3.30;;
76320;SDS011;65132;52.088;5.402;2024-03-22T12:51:46;10.15;;;3.97;;
76320;SDS011;65132;52.088;5.402;2024-03-22T12:54:11;10.80;;;4.47;;
76320;SDS011;65132;52.088;5.402;2024-03-22T12:56:39;10.20;;;4.35;;
76320;SDS011;65132;52.088;5.402;2024-03-22T12:59:04;10.85;;;5.20;;
76320;SDS011;65132;52.088;5.402;2024-03-22T13:01:32;11.02;;;4.68;;
76320;SDS011;65132;52.088;5.402;2024-03-22T13:03:58;13.18;;;4.60;;
76320;SDS011;65132;52.088;5.402;2024-03-22T13:06:23;15.07;;;6.00;;
76320;SDS011;65132;52.088;5.402;2024-03-22T13:08:49;9.90;;;4.20;;
76320;SDS011;65132;52.088;5.402;2024-03-22T13:11:15;14.65;;;5.93;;
76320;SDS011;65132;52.088;5.402;2024-03-22T13:13:40;13.82;;;8.65;;
76320;SDS011;65132;52.088;5.402;2024-03-22T13:16:05;10.73;;;4.50;;
76320;SDS011;65132;52.088;5.402;2024-03-22T13:18:33;9.88;;;4.78;;
76320;SDS011;65132;52.088;5.402;2024-03-22T13:20:59;12.10;;;4.13;;
76320;SDS011;65132;52.088;5.402;2024-03-22T13:23:25;7.93;;;4.05;;
76320;SDS011;65132;52.088;5.402;2024-03-22T13:25:50;11.38;;;4.00;;
76320;SDS011;65132;52.088;5.402;2024-03-22T13:28:16;9.10;;;3.85;;
76320;SDS011;65132;52.088;5.402;2024-03-22T13:30:42;10.05;;;4.57;;
76320;SDS011;65132;52.088;5.402;2024-03-22T13:33:07;9.35;;;4.03;;
76320;SDS011;65132;52.088;5.402;2024-03-22T13:35:32;12.00;;;5.68;;
76320;SDS011;65132;52.088;5.402;2024-03-22T13:37:58;9.20;;;3.38;;
76320;SDS011;65132;52.088;5.402;2024-03-22T13:40:23;7.78;;;3.25;;
76320;SDS011;65132;52.088;5.402;2024-03-22T13:42:52;13.02;;;6.68;;
76320;SDS011;65132;52.088;5.402;2024-03-22T13:45:18;27.98;;;9.93;;
76320;SDS011;65132;52.088;5.402;2024-03-22T13:47:43;104.25;;;34.40;;
76320;SDS011;65132;52.088;5.402;2024-03-22T13:50:09;133.95;;;49.67;;
76320;SDS011;65132;52.088;5.402;2024-03-22T13:52:35;38.10;;;15.18;;
76320;SDS011;65132;52.088;5.402;2024-03-22T13:55:03;92.78;;;46.58;;
76320;SDS011;65132;52.088;5.402;2024-03-22T13:57:32;30.55;;;18.48;;
76320;SDS011;65132;52.088;5.402;2024-03-22T13:59:58;17.10;;;10.13;;
76320;SDS011;65132;52.088;5.402;2024-03-22T14:02:24;14.43;;;8.45;;
76320;SDS011;65132;52.088;5.402;2024-03-22T14:04:52;12.38;;;5.05;;
76320;SDS011;65132;52.088;5.402;2024-03-22T14:07:17;15.52;;;7.15;;
76320;SDS011;65132;52.088;5.402;2024-03-22T14:09:43;11.07;;;5.65;;
76320;SDS011;65132;52.088;5.402;2024-03-22T14:12:08;12.98;;;5.30;;
76320;SDS011;65132;52.088;5.402;2024-03-22T14:14:34;10.23;;;4.13;;
76320;SDS011;65132;52.088;5.402;2024-03-22T14:17:00;10.73;;;4.22;;
76320;SDS011;65132;52.088;5.402;2024-03-22T14:19:25;10.95;;;4.95;;
76320;SDS011;65132;52.088;5.402;2024-03-22T14:21:51;13.13;;;4.38;;